sensor_id;sensor_type;location;lat;lon;timestamp;pressure;altitude;pressure_sealevel;temperature;humidity
10462;BME280;5278;42.656;23.374;2023-02-16T00:01:49;95894.41;;;3.10;84.13
10462;BME280;5278;42.656;23.374;2023-02-16T00:04:19;95891.84;;;3.10;83.80
10462;BME280;5278;42.656;23.374;2023-02-16T00:06:47;95843.72;;;2.74;83.42
10462;BME280;5278;42.656;23.374;2023-02-16T00:09:16;95899.16;;;3.03;83.68
10462;BME280;5278;42.656;23.374;2023-02-16T00:11:45;95897.19;;;3.07;83.67
10462;BME280;5278;42.656;23.374;2023-02-16T00:14:32;95890.91;;;2.98;83.27
10462;BME280;5278;42.656;23.374;2023-02-16T00:17:00;95872.72;;;2.88;83.97
10462;BME280;5278;42.656;23.374;2023-02-16T00:19:29;95894.72;;;3.05;83.27
10462;BME280;5278;42.656;23.374;2023-02-16T00:21:59;95887.94;;;3.04;83.36
10462;BME280;5278;42.656;23.374;2023-02-16T00:24:29;95895.09;;;2.99;83.54
10462;BME280;5278;42.656;23.374;2023-02-16T00:26:59;95882.56;;;2.94;83.65
10462;BME280;5278;42.656;23.374;2023-02-16T00:29:28;95833.47;;;2.59;84.46
10462;BME280;5278;42.656;23.374;2023-02-16T00:31:56;95889.06;;;3.00;84.82
10462;BME280;5278;42.656;23.374;2023-02-16T00:34:30;95888.44;;;2.96;84.57
10462;BME280;5278;42.656;23.374;2023-02-16T00:36:59;95891.00;;;2.96;84.08
10462;BME280;5278;42.656;23.374;2023-02-16T00:39:28;95842.66;;;2.64;83.75
10462;BME280;5278;42.656;23.374;2023-02-16T00:41:59;95870.28;;;2.73;83.80
10462;BME280;5278;42.656;23.374;2023-02-16T00:44:31;95888.72;;;2.92;84.54
10462;BME280;5278;42.656;23.374;2023-02-16T00:47:01;95889.63;;;2.91;84.04
10462;BME280;5278;42.656;23.374;2023-02-16T00:49:29;95883.97;;;2.86;83.88
10462;BME280;5278;42.656;23.374;2023-02-16T00:51:56;95887.13;;;2.77;83.77
10462;BME280;5278;42.656;23.374;2023-02-16T00:54:23;95894.84;;;2.63;84.13
10462;BME280;5278;42.656;23.374;2023-02-16T00:56:51;95884.13;;;2.56;83.68
10462;BME280;5278;42.656;23.374;2023-02-16T00:59:21;95882.97;;;2.47;83.83
10462;BME280;5278;42.656;23.374;2023-02-16T01:01:49;95887.28;;;2.47;84.72
10462;BME280;5278;42.656;23.374;2023-02-16T01:04:19;95880.03;;;2.39;84.67
10462;BME280;5278;42.656;23.374;2023-02-16T01:06:47;95884.78;;;2.45;84.89
10462;BME280;5278;42.656;23.374;2023-02-16T01:09:31;95881.69;;;2.40;85.32
10462;BME280;5278;42.656;23.374;2023-02-16T01:12:19;95874.28;;;2.36;85.26
10462;BME280;5278;42.656;23.374;2023-02-16T01:14:51;95881.53;;;2.43;85.41
10462;BME280;5278;42.656;23.374;2023-02-16T01:17:19;95879.88;;;2.42;84.62
10462;BME280;5278;42.656;23.374;2023-02-16T01:19:47;95878.28;;;2.40;84.89
10462;BME280;5278;42.656;23.374;2023-02-16T01:22:14;95868.88;;;2.26;84.81
10462;BME280;5278;42.656;23.374;2023-02-16T01:24:41;95870.25;;;2.32;85.49
10462;BME280;5278;42.656;23.374;2023-02-16T01:27:09;95854.78;;;2.33;84.94
10462;BME280;5278;42.656;23.374;2023-02-16T01:29:38;95848.75;;;2.20;85.47
10462;BME280;5278;42.656;23.374;2023-02-16T01:32:05;95863.41;;;2.32;85.57
10462;BME280;5278;42.656;23.374;2023-02-16T01:34:32;95865.06;;;2.33;86.26
10462;BME280;5278;42.656;23.374;2023-02-16T01:36:59;95862.38;;;2.35;85.38
10462;BME280;5278;42.656;23.374;2023-02-16T01:39:26;95811.34;;;2.03;85.65
10462;BME280;5278;42.656;23.374;2023-02-16T01:42:03;95841.72;;;2.24;84.40
10462;BME280;5278;42.656;23.374;2023-02-16T01:44:40;95857.25;;;2.35;85.22
10462;BME280;5278;42.656;23.374;2023-02-16T01:47:22;95810.16;;;1.95;85.76
10462;BME280;5278;42.656;23.374;2023-02-16T01:49:51;95852.06;;;2.22;86.32
10462;BME280;5278;42.656;23.374;2023-02-16T01:52:25;95845.28;;;2.21;86.36
10462;BME280;5278;42.656;23.374;2023-02-16T01:54:59;95716.56;;;1.48;85.35
10462;BME280;5278;42.656;23.374;2023-02-16T01:57:35;95844.38;;;2.22;85.03
10462;BME280;5278;42.656;23.374;2023-02-16T02:00:13;95844.44;;;2.21;85.39
10462;BME280;5278;42.656;23.374;2023-02-16T02:02:44;95836.41;;;2.12;84.89
10462;BME280;5278;42.656;23.374;2023-02-16T02:05:20;95843.81;;;2.17;85.53
10462;BME280;5278;42.656;23.374;2023-02-16T02:08:14;95840.72;;;2.12;85.75
10462;BME280;5278;42.656;23.374;2023-02-16T02:10:50;95844.28;;;2.09;85.42
10462;BME280;5278;42.656;23.374;2023-02-16T02:13:25;95844.94;;;2.13;85.69
10462;BME280;5278;42.656;23.374;2023-02-16T02:15:58;95836.59;;;2.09;86.13
10462;BME280;5278;42.656;23.374;2023-02-16T02:18:27;95837.97;;;2.15;85.18
10462;BME280;5278;42.656;23.374;2023-02-16T02:21:07;95843.09;;;2.15;85.69
10462;BME280;5278;42.656;23.374;2023-02-16T02:24:26;95841.63;;;2.11;86.15
10462;BME280;5278;42.656;23.374;2023-02-16T02:27:12;95838.91;;;2.14;85.83
10462;BME280;5278;42.656;23.374;2023-02-16T02:30:12;95839.81;;;2.13;85.07
10462;BME280;5278;42.656;23.374;2023-02-16T02:32:54;95838.25;;;2.10;85.36
10462;BME280;5278;42.656;23.374;2023-02-16T02:35:35;95832.84;;;2.01;86.38
10462;BME280;5278;42.656;23.374;2023-02-16T02:38:09;95830.56;;;1.96;86.50
10462;BME280;5278;42.656;23.374;2023-02-16T02:40:48;95835.41;;;2.01;86.01
10462;BME280;5278;42.656;23.374;2023-02-16T02:43:23;95825.91;;;2.03;86.65
10462;BME280;5278;42.656;23.374;2023-02-16T02:45:55;95832.69;;;2.04;87.03
10462;BME280;5278;42.656;23.374;2023-02-16T02:48:28;95838.06;;;1.99;86.06
10462;BME280;5278;42.656;23.374;2023-02-16T02:50:57;95829.94;;;1.93;86.35
10462;BME280;5278;42.656;23.374;2023-02-16T02:53:44;95835.16;;;1.91;87.42
10462;BME280;5278;42.656;23.374;2023-02-16T02:56:14;95835.06;;;1.93;87.11
10462;BME280;5278;42.656;23.374;2023-02-16T02:59:05;95833.59;;;1.89;87.06
10462;BME280;5278;42.656;23.374;2023-02-16T03:01:51;95835.63;;;1.84;87.77
10462;BME280;5278;42.656;23.374;2023-02-16T03:04:24;95843.09;;;1.87;86.53
10462;BME280;5278;42.656;23.374;2023-02-16T03:06:56;95819.31;;;1.70;86.58
10462;BME280;5278;42.656;23.374;2023-02-16T03:09:25;95838.47;;;1.79;86.08
10462;BME280;5278;42.656;23.374;2023-02-16T03:11:54;95844.13;;;1.84;86.21
10462;BME280;5278;42.656;23.374;2023-02-16T03:14:46;95838.53;;;1.78;86.84
10462;BME280;5278;42.656;23.374;2023-02-16T03:17:17;95843.28;;;1.69;86.90
10462;BME280;5278;42.656;23.374;2023-02-16T03:20:06;95848.03;;;1.61;87.88
10462;BME280;5278;42.656;23.374;2023-02-16T03:22:52;95843.66;;;1.63;87.05
10462;BME280;5278;42.656;23.374;2023-02-16T03:25:38;95836.13;;;1.60;87.13
10462;BME280;5278;42.656;23.374;2023-02-16T03:28:25;95848.22;;;1.58;87.12
10462;BME280;5278;42.656;23.374;2023-02-16T03:31:15;95837.22;;;1.56;87.20
10462;BME280;5278;42.656;23.374;2023-02-16T03:33:45;95826.53;;;1.50;87.93
10462;BME280;5278;42.656;23.374;2023-02-16T03:36:19;95838.25;;;1.54;87.59
10462;BME280;5278;42.656;23.374;2023-02-16T03:38:47;95841.16;;;1.34;87.52
10462;BME280;5278;42.656;23.374;2023-02-16T03:41:14;95771.91;;;1.07;87.82
10462;BME280;5278;42.656;23.374;2023-02-16T03:43:41;95735.84;;;0.81;88.30
10462;BME280;5278;42.656;23.374;2023-02-16T03:46:08;95734.50;;;0.90;87.52
10462;BME280;5278;42.656;23.374;2023-02-16T03:48:36;95836.03;;;1.48;87.86
10462;BME280;5278;42.656;23.374;2023-02-16T03:51:04;95840.16;;;1.50;87.65
10462;BME280;5278;42.656;23.374;2023-02-16T03:53:31;95837.44;;;1.53;87.53
10462;BME280;5278;42.656;23.374;2023-02-16T03:55:58;95843.25;;;1.55;87.48
10462;BME280;5278;42.656;23.374;2023-02-16T03:58:25;95788.19;;;1.20;87.18
10462;BME280;5278;42.656;23.374;2023-02-16T04:00:52;95815.28;;;1.38;86.67
10462;BME280;5278;42.656;23.374;2023-02-16T04:03:19;95836.88;;;1.62;86.15
10462;BME280;5278;42.656;23.374;2023-02-16T04:05:48;95836.25;;;1.59;85.57
10462;BME280;5278;42.656;23.374;2023-02-16T04:08:15;95840.63;;;1.57;86.48
10462;BME280;5278;42.656;23.374;2023-02-16T04:10:42;95840.00;;;1.53;85.84
10462;BME280;5278;42.656;23.374;2023-02-16T04:13:09;95750.66;;;0.91;87.07
10462;BME280;5278;42.656;23.374;2023-02-16T04:15:35;95826.22;;;1.40;86.29
10462;BME280;5278;42.656;23.374;2023-02-16T04:18:02;95826.06;;;1.43;86.84
10462;BME280;5278;42.656;23.374;2023-02-16T04:20:31;95816.75;;;1.42;85.78
10462;BME280;5278;42.656;23.374;2023-02-16T04:23:02;95822.97;;;1.38;86.97
10462;BME280;5278;42.656;23.374;2023-02-16T04:25:29;95817.66;;;1.41;86.77
10462;BME280;5278;42.656;23.374;2023-02-16T04:27:56;95816.56;;;1.45;86.65
10462;BME280;5278;42.656;23.374;2023-02-16T04:30:25;95813.63;;;1.37;86.45
10462;BME280;5278;42.656;23.374;2023-02-16T04:32:53;95811.59;;;1.28;87.01
10462;BME280;5278;42.656;23.374;2023-02-16T04:35:20;95826.88;;;1.29;87.45
10462;BME280;5278;42.656;23.374;2023-02-16T04:37:48;95821.84;;;1.28;88.24
10462;BME280;5278;42.656;23.374;2023-02-16T04:40:17;95825.88;;;1.32;88.38
10462;BME280;5278;42.656;23.374;2023-02-16T04:42:45;95819.19;;;1.29;87.70
10462;BME280;5278;42.656;23.374;2023-02-16T04:45:12;95827.59;;;1.32;88.51
10462;BME280;5278;42.656;23.374;2023-02-16T04:47:39;95832.00;;;1.29;88.99
10462;BME280;5278;42.656;23.374;2023-02-16T04:50:07;95846.69;;;1.26;88.75
10462;BME280;5278;42.656;23.374;2023-02-16T04:52:33;95830.78;;;1.21;89.39
10462;BME280;5278;42.656;23.374;2023-02-16T04:55:01;95833.88;;;1.26;89.70
10462;BME280;5278;42.656;23.374;2023-02-16T04:57:29;95839.00;;;1.26;89.20
10462;BME280;5278;42.656;23.374;2023-02-16T04:59:56;95839.75;;;1.28;88.90
10462;BME280;5278;42.656;23.374;2023-02-16T05:02:23;95832.16;;;1.26;89.60
10462;BME280;5278;42.656;23.374;2023-02-16T05:04:50;95816.47;;;1.03;89.38
10462;BME280;5278;42.656;23.374;2023-02-16T05:07:17;95841.19;;;1.18;89.85
10462;BME280;5278;42.656;23.374;2023-02-16T05:09:44;95850.13;;;1.11;89.48
10462;BME280;5278;42.656;23.374;2023-02-16T05:12:11;95847.00;;;1.06;89.44
10462;BME280;5278;42.656;23.374;2023-02-16T05:14:57;95844.16;;;1.10;89.64
10462;BME280;5278;42.656;23.374;2023-02-16T05:17:25;95858.25;;;1.03;89.46
10462;BME280;5278;42.656;23.374;2023-02-16T05:19:55;95850.81;;;0.99;88.86
10462;BME280;5278;42.656;23.374;2023-02-16T05:22:22;95847.97;;;0.89;88.55
10462;BME280;5278;42.656;23.374;2023-02-16T05:24:50;95851.22;;;0.91;88.90
10462;BME280;5278;42.656;23.374;2023-02-16T05:27:20;95850.41;;;0.91;89.05
10462;BME280;5278;42.656;23.374;2023-02-16T05:29:48;95854.81;;;0.89;89.50
10462;BME280;5278;42.656;23.374;2023-02-16T05:32:17;95858.91;;;0.91;89.47
10462;BME280;5278;42.656;23.374;2023-02-16T05:34:44;95862.94;;;0.95;89.59
10462;BME280;5278;42.656;23.374;2023-02-16T05:37:12;95858.50;;;0.99;90.79
10462;BME280;5278;42.656;23.374;2023-02-16T05:39:39;95859.44;;;1.12;90.83
10462;BME280;5278;42.656;23.374;2023-02-16T05:42:07;95832.69;;;1.17;89.63
10462;BME280;5278;42.656;23.374;2023-02-16T05:44:36;95862.50;;;1.62;89.32
10462;BME280;5278;42.656;23.374;2023-02-16T05:47:04;95855.34;;;1.96;89.11
10462;BME280;5278;42.656;23.374;2023-02-16T05:49:35;95862.66;;;2.30;89.15
10462;BME280;5278;42.656;23.374;2023-02-16T05:52:02;95865.72;;;2.64;86.77
10462;BME280;5278;42.656;23.374;2023-02-16T05:54:30;95865.25;;;2.98;85.72
10462;BME280;5278;42.656;23.374;2023-02-16T05:56:57;95855.59;;;3.28;83.18
10462;BME280;5278;42.656;23.374;2023-02-16T05:59:24;95865.69;;;3.69;81.74
10462;BME280;5278;42.656;23.374;2023-02-16T06:01:51;95831.16;;;3.86;80.08
10462;BME280;5278;42.656;23.374;2023-02-16T06:04:19;95863.53;;;4.63;76.67
10462;BME280;5278;42.656;23.374;2023-02-16T06:06:48;95855.06;;;5.21;73.43
10462;BME280;5278;42.656;23.374;2023-02-16T06:09:15;95862.81;;;5.67;70.83
10462;BME280;5278;42.656;23.374;2023-02-16T06:11:42;95848.59;;;6.19;67.30
10462;BME280;5278;42.656;23.374;2023-02-16T06:14:11;95861.34;;;6.76;63.78
10462;BME280;5278;42.656;23.374;2023-02-16T06:16:40;95862.31;;;7.39;65.43
10462;BME280;5278;42.656;23.374;2023-02-16T06:19:08;95839.25;;;7.67;59.79
10462;BME280;5278;42.656;23.374;2023-02-16T06:21:37;95858.75;;;8.43;56.06
10462;BME280;5278;42.656;23.374;2023-02-16T06:24:07;95855.09;;;9.05;54.24
10462;BME280;5278;42.656;23.374;2023-02-16T06:26:35;95859.47;;;9.62;50.26
10462;BME280;5278;42.656;23.374;2023-02-16T06:29:02;95849.19;;;12.40;91.11
10462;BME280;5278;42.656;23.374;2023-02-16T06:31:29;95846.81;;;13.79;50.99
10462;BME280;5278;42.656;23.374;2023-02-16T06:33:56;95854.03;;;14.65;43.92
10462;BME280;5278;42.656;23.374;2023-02-16T06:36:24;95848.91;;;15.19;40.17
10462;BME280;5278;42.656;23.374;2023-02-16T06:38:51;95856.41;;;15.75;38.11
10462;BME280;5278;42.656;23.374;2023-02-16T06:41:20;95772.34;;;15.62;36.31
10462;BME280;5278;42.656;23.374;2023-02-16T06:43:57;95852.47;;;16.31;35.54
10462;BME280;5278;42.656;23.374;2023-02-16T06:46:25;95854.50;;;16.59;34.56
10462;BME280;5278;42.656;23.374;2023-02-16T06:48:52;95850.25;;;16.87;33.81
10462;BME280;5278;42.656;23.374;2023-02-16T06:51:19;95842.72;;;17.13;33.54
10462;BME280;5278;42.656;23.374;2023-02-16T06:53:46;95860.38;;;17.41;32.91
10462;BME280;5278;42.656;23.374;2023-02-16T06:56:13;95839.66;;;17.67;32.29
10462;BME280;5278;42.656;23.374;2023-02-16T06:58:42;95851.44;;;17.92;31.75
10462;BME280;5278;42.656;23.374;2023-02-16T07:01:10;95844.91;;;18.37;30.98
10462;BME280;5278;42.656;23.374;2023-02-16T07:03:37;95837.81;;;18.66;30.77
10462;BME280;5278;42.656;23.374;2023-02-16T07:06:04;95850.03;;;18.80;30.67
10462;BME280;5278;42.656;23.374;2023-02-16T07:08:32;95846.91;;;19.04;30.23
10462;BME280;5278;42.656;23.374;2023-02-16T07:10:59;95830.94;;;19.19;29.56
10462;BME280;5278;42.656;23.374;2023-02-16T07:13:26;95843.25;;;19.53;29.56
10462;BME280;5278;42.656;23.374;2023-02-16T07:15:54;95831.34;;;19.76;29.38
10462;BME280;5278;42.656;23.374;2023-02-16T07:18:21;95831.13;;;19.98;28.89
10462;BME280;5278;42.656;23.374;2023-02-16T07:20:48;95810.03;;;20.04;28.53
10462;BME280;5278;42.656;23.374;2023-02-16T07:23:15;95812.69;;;20.37;28.06
10462;BME280;5278;42.656;23.374;2023-02-16T07:25:43;95814.06;;;20.66;27.83
10462;BME280;5278;42.656;23.374;2023-02-16T07:28:09;95807.88;;;20.92;27.44
10462;BME280;5278;42.656;23.374;2023-02-16T07:30:37;95803.28;;;21.25;26.72
10462;BME280;5278;42.656;23.374;2023-02-16T07:33:05;95798.09;;;21.75;25.98
10462;BME280;5278;42.656;23.374;2023-02-16T07:35:32;95799.00;;;22.18;25.60
10462;BME280;5278;42.656;23.374;2023-02-16T07:37:59;95797.78;;;22.57;25.08
10462;BME280;5278;42.656;23.374;2023-02-16T07:40:26;95647.38;;;22.05;24.44
10462;BME280;5278;42.656;23.374;2023-02-16T07:42:53;95799.19;;;23.33;23.50
10462;BME280;5278;42.656;23.374;2023-02-16T07:45:20;95798.97;;;23.34;24.08
10462;BME280;5278;42.656;23.374;2023-02-16T07:47:47;95799.19;;;23.33;23.32
10462;BME280;5278;42.656;23.374;2023-02-16T07:50:15;95793.88;;;23.33;23.17
10462;BME280;5278;42.656;23.374;2023-02-16T07:52:42;95794.44;;;23.53;23.01
10462;BME280;5278;42.656;23.374;2023-02-16T07:55:10;95795.34;;;23.47;22.72
10462;BME280;5278;42.656;23.374;2023-02-16T07:57:38;95803.00;;;23.67;23.28
10462;BME280;5278;42.656;23.374;2023-02-16T08:00:09;95803.66;;;23.92;22.57
10462;BME280;5278;42.656;23.374;2023-02-16T08:02:36;95804.81;;;23.84;22.88
10462;BME280;5278;42.656;23.374;2023-02-16T08:05:03;95792.47;;;23.90;21.97
10462;BME280;5278;42.656;23.374;2023-02-16T08:07:32;95810.03;;;23.91;22.16
10462;BME280;5278;42.656;23.374;2023-02-16T08:09:59;95812.03;;;23.66;22.86
10462;BME280;5278;42.656;23.374;2023-02-16T08:12:26;95809.94;;;23.56;22.50
10462;BME280;5278;42.656;23.374;2023-02-16T08:14:53;95783.38;;;23.26;22.85
10462;BME280;5278;42.656;23.374;2023-02-16T08:17:20;95814.88;;;23.34;22.79
10462;BME280;5278;42.656;23.374;2023-02-16T08:19:48;95814.53;;;23.31;23.14
10462;BME280;5278;42.656;23.374;2023-02-16T08:22:16;95804.69;;;22.83;23.06
10462;BME280;5278;42.656;23.374;2023-02-16T08:24:45;95817.53;;;22.86;23.45
10462;BME280;5278;42.656;23.374;2023-02-16T08:27:13;95818.56;;;23.33;22.99
10462;BME280;5278;42.656;23.374;2023-02-16T08:29:40;95817.16;;;23.49;22.76
10462;BME280;5278;42.656;23.374;2023-02-16T08:32:10;95820.78;;;23.66;23.45
10462;BME280;5278;42.656;23.374;2023-02-16T08:34:42;95815.25;;;23.56;22.58
10462;BME280;5278;42.656;23.374;2023-02-16T08:37:10;95777.63;;;23.59;22.57
10462;BME280;5278;42.656;23.374;2023-02-16T08:39:38;95811.66;;;24.03;22.56
10462;BME280;5278;42.656;23.374;2023-02-16T08:42:10;95815.31;;;24.21;22.30
10462;BME280;5278;42.656;23.374;2023-02-16T08:44:38;95814.72;;;24.30;22.29
10462;BME280;5278;42.656;23.374;2023-02-16T08:47:06;95816.31;;;24.66;21.64
10462;BME280;5278;42.656;23.374;2023-02-16T08:49:35;95816.06;;;25.03;21.44
10462;BME280;5278;42.656;23.374;2023-02-16T08:52:02;95818.63;;;25.09;21.34
10462;BME280;5278;42.656;23.374;2023-02-16T08:54:32;95817.41;;;25.28;21.24
10462;BME280;5278;42.656;23.374;2023-02-16T08:56:59;95791.44;;;24.96;21.17
10462;BME280;5278;42.656;23.374;2023-02-16T08:59:28;95808.50;;;25.51;21.14
10462;BME280;5278;42.656;23.374;2023-02-16T09:01:57;95800.22;;;25.93;20.83
10462;BME280;5278;42.656;23.374;2023-02-16T09:04:25;95803.06;;;26.20;20.59
10462;BME280;5278;42.656;23.374;2023-02-16T09:06:54;95801.84;;;26.10;20.36
10462;BME280;5278;42.656;23.374;2023-02-16T09:09:22;95805.00;;;26.58;20.30
10462;BME280;5278;42.656;23.374;2023-02-16T09:11:50;95802.44;;;26.84;19.89
10462;BME280;5278;42.656;23.374;2023-02-16T09:14:17;95754.75;;;26.71;19.65
10462;BME280;5278;42.656;23.374;2023-02-16T09:16:47;95804.78;;;26.81;19.64
10462;BME280;5278;42.656;23.374;2023-02-16T09:19:16;95776.75;;;26.78;20.00
10462;BME280;5278;42.656;23.374;2023-02-16T09:21:43;95800.50;;;27.18;19.61
10462;BME280;5278;42.656;23.374;2023-02-16T09:24:12;95793.88;;;27.26;19.12
10462;BME280;5278;42.656;23.374;2023-02-16T09:26:40;95799.81;;;27.28;19.08
10462;BME280;5278;42.656;23.374;2023-02-16T09:29:09;95782.81;;;26.74;19.53
10462;BME280;5278;42.656;23.374;2023-02-16T09:31:37;95790.09;;;26.62;19.71
10462;BME280;5278;42.656;23.374;2023-02-16T09:34:07;95785.53;;;26.40;20.35
10462;BME280;5278;42.656;23.374;2023-02-16T09:36:36;95778.31;;;25.91;20.24
10462;BME280;5278;42.656;23.374;2023-02-16T09:39:03;95763.59;;;25.26;20.89
10462;BME280;5278;42.656;23.374;2023-02-16T09:41:37;95785.03;;;25.20;20.99
10462;BME280;5278;42.656;23.374;2023-02-16T09:44:13;95757.94;;;24.95;21.45
10462;BME280;5278;42.656;23.374;2023-02-16T09:46:43;95766.19;;;25.66;20.75
10462;BME280;5278;42.656;23.374;2023-02-16T09:49:22;95772.66;;;25.70;20.68
10462;BME280;5278;42.656;23.374;2023-02-16T09:51:57;95767.75;;;25.62;20.69
10462;BME280;5278;42.656;23.374;2023-02-16T09:54:32;95769.47;;;26.02;20.33
10462;BME280;5278;42.656;23.374;2023-02-16T09:57:04;95756.00;;;26.64;20.06
10462;BME280;5278;42.656;23.374;2023-02-16T09:59:41;95723.88;;;26.53;19.73
10462;BME280;5278;42.656;23.374;2023-02-16T10:02:32;95752.91;;;26.72;19.39
10462;BME280;5278;42.656;23.374;2023-02-16T10:05:15;95747.41;;;26.78;19.33
10462;BME280;5278;42.656;23.374;2023-02-16T10:08:00;95753.19;;;26.92;19.11
10462;BME280;5278;42.656;23.374;2023-02-16T10:10:34;95752.13;;;26.93;19.44
10462;BME280;5278;42.656;23.374;2023-02-16T10:13:11;95745.94;;;27.09;19.51
10462;BME280;5278;42.656;23.374;2023-02-16T10:15:43;95748.31;;;27.32;19.17
10462;BME280;5278;42.656;23.374;2023-02-16T10:18:19;95743.41;;;27.73;19.03
10462;BME280;5278;42.656;23.374;2023-02-16T10:20:51;95731.19;;;27.82;18.54
10462;BME280;5278;42.656;23.374;2023-02-16T10:23:32;95727.94;;;27.80;18.54
10462;BME280;5278;42.656;23.374;2023-02-16T10:26:12;95724.94;;;27.45;18.90
10462;BME280;5278;42.656;23.374;2023-02-16T10:28:45;95731.06;;;27.18;18.94
10462;BME280;5278;42.656;23.374;2023-02-16T10:31:15;95731.09;;;26.75;19.34
10462;BME280;5278;42.656;23.374;2023-02-16T10:34:01;95733.31;;;26.83;19.45
10462;BME280;5278;42.656;23.374;2023-02-16T10:36:47;95718.59;;;26.03;20.04
10462;BME280;5278;42.656;23.374;2023-02-16T10:39:25;95629.50;;;25.44;20.07
10462;BME280;5278;42.656;23.374;2023-02-16T10:41:59;95723.94;;;26.59;19.63
10462;BME280;5278;42.656;23.374;2023-02-16T10:44:30;95721.56;;;26.62;19.38
10462;BME280;5278;42.656;23.374;2023-02-16T10:47:04;95709.63;;;26.65;19.53
10462;BME280;5278;42.656;23.374;2023-02-16T10:49:33;95713.28;;;27.02;19.80
10462;BME280;5278;42.656;23.374;2023-02-16T10:52:03;95711.22;;;27.09;19.37
10462;BME280;5278;42.656;23.374;2023-02-16T10:54:34;95713.34;;;27.34;19.17
10462;BME280;5278;42.656;23.374;2023-02-16T10:57:03;95672.34;;;27.18;19.35
10462;BME280;5278;42.656;23.374;2023-02-16T10:59:37;95672.69;;;26.78;19.15
10462;BME280;5278;42.656;23.374;2023-02-16T11:02:17;95704.88;;;25.95;20.10
10462;BME280;5278;42.656;23.374;2023-02-16T11:04:46;95695.00;;;25.95;20.38
10462;BME280;5278;42.656;23.374;2023-02-16T11:07:17;95683.72;;;26.65;19.83
10462;BME280;5278;42.656;23.374;2023-02-16T11:09:46;95682.31;;;27.01;19.29
10462;BME280;5278;42.656;23.374;2023-02-16T11:12:22;95682.06;;;26.59;19.45
10462;BME280;5278;42.656;23.374;2023-02-16T11:14:53;95673.25;;;26.59;19.38
10462;BME280;5278;42.656;23.374;2023-02-16T11:17:22;95670.63;;;26.42;19.94
10462;BME280;5278;42.656;23.374;2023-02-16T11:19:52;95678.47;;;26.92;19.46
10462;BME280;5278;42.656;23.374;2023-02-16T11:22:27;95673.94;;;26.49;19.40
10462;BME280;5278;42.656;23.374;2023-02-16T11:25:16;95668.28;;;26.24;20.02
10462;BME280;5278;42.656;23.374;2023-02-16T11:27:49;95666.06;;;26.37;19.82
10462;BME280;5278;42.656;23.374;2023-02-16T11:30:31;95667.41;;;26.62;19.33
10462;BME280;5278;42.656;23.374;2023-02-16T11:33:00;95665.59;;;26.07;20.08
10462;BME280;5278;42.656;23.374;2023-02-16T11:35:30;95671.94;;;25.84;20.45
10462;BME280;5278;42.656;23.374;2023-02-16T11:38:01;95661.44;;;25.44;20.61
10462;BME280;5278;42.656;23.374;2023-02-16T11:40:31;95630.38;;;24.48;21.14
10462;BME280;5278;42.656;23.374;2023-02-16T11:43:01;95650.31;;;24.74;21.33
10462;BME280;5278;42.656;23.374;2023-02-16T11:45:30;95643.50;;;24.66;21.46
10462;BME280;5278;42.656;23.374;2023-02-16T11:48:00;95650.63;;;24.77;20.98
10462;BME280;5278;42.656;23.374;2023-02-16T11:50:29;95646.31;;;24.60;21.22
10462;BME280;5278;42.656;23.374;2023-02-16T11:53:14;95649.63;;;24.67;21.41
10462;BME280;5278;42.656;23.374;2023-02-16T11:55:42;95642.56;;;24.32;21.50
10462;BME280;5278;42.656;23.374;2023-02-16T11:58:15;95643.38;;;24.21;21.68
10462;BME280;5278;42.656;23.374;2023-02-16T12:00:52;95638.44;;;23.90;22.07
10462;BME280;5278;42.656;23.374;2023-02-16T12:06:33;95631.06;;;23.80;22.23
10462;BME280;5278;42.656;23.374;2023-02-16T12:09:13;95632.44;;;23.71;22.14
10462;BME280;5278;42.656;23.374;2023-02-16T12:11:50;95623.78;;;23.64;22.55
10462;BME280;5278;42.656;23.374;2023-02-16T12:14:33;95614.28;;;23.91;22.08
10462;BME280;5278;42.656;23.374;2023-02-16T12:17:16;95629.63;;;24.01;21.73
10462;BME280;5278;42.656;23.374;2023-02-16T12:19:45;95608.06;;;24.09;21.38
10462;BME280;5278;42.656;23.374;2023-02-16T12:22:24;95601.13;;;24.20;21.52
10462;BME280;5278;42.656;23.374;2023-02-16T12:25:03;95618.25;;;23.77;21.84
10462;BME280;5278;42.656;23.374;2023-02-16T12:27:44;95597.78;;;23.43;22.19
10462;BME280;5278;42.656;23.374;2023-02-16T12:30:25;95596.41;;;23.29;22.28
10462;BME280;5278;42.656;23.374;2023-02-16T12:33:01;95596.19;;;22.89;22.62
10462;BME280;5278;42.656;23.374;2023-02-16T12:35:49;95594.16;;;23.02;23.03
10462;BME280;5278;42.656;23.374;2023-02-16T12:38:32;95592.53;;;23.01;22.94
10462;BME280;5278;42.656;23.374;2023-02-16T12:41:17;95592.94;;;22.75;22.75
10462;BME280;5278;42.656;23.374;2023-02-16T12:43:49;95583.44;;;22.38;23.46
10462;BME280;5278;42.656;23.374;2023-02-16T12:46:23;95579.88;;;22.44;23.47
10462;BME280;5278;42.656;23.374;2023-02-16T12:48:54;95578.59;;;22.35;23.44
10462;BME280;5278;42.656;23.374;2023-02-16T12:51:26;95581.41;;;22.21;23.60
10462;BME280;5278;42.656;23.374;2023-02-16T12:53:58;95574.34;;;21.79;23.77
10462;BME280;5278;42.656;23.374;2023-02-16T12:56:32;95574.72;;;21.39;24.10
10462;BME280;5278;42.656;23.374;2023-02-16T12:59:12;95544.72;;;21.02;24.62
10462;BME280;5278;42.656;23.374;2023-02-16T13:01:42;95567.06;;;20.82;25.12
10462;BME280;5278;42.656;23.374;2023-02-16T13:04:16;95566.13;;;20.70;25.26
10462;BME280;5278;42.656;23.374;2023-02-16T13:06:49;95561.00;;;20.43;25.34
10462;BME280;5278;42.656;23.374;2023-02-16T13:09:24;95559.97;;;20.00;26.02
10462;BME280;5278;42.656;23.374;2023-02-16T13:12:03;95563.56;;;19.54;26.41
10462;BME280;5278;42.656;23.374;2023-02-16T13:14:34;95565.00;;;19.11;26.87
10462;BME280;5278;42.656;23.374;2023-02-16T13:17:09;95565.03;;;18.78;27.48
10462;BME280;5278;42.656;23.374;2023-02-16T13:19:45;95545.44;;;18.20;27.89
10462;BME280;5278;42.656;23.374;2023-02-16T13:28:11;95556.84;;;17.17;29.49
10462;BME280;5278;42.656;23.374;2023-02-16T13:30:54;95553.63;;;16.94;29.96
10462;BME280;5278;42.656;23.374;2023-02-16T13:33:35;95548.34;;;16.87;30.40
10462;BME280;5278;42.656;23.374;2023-02-16T13:39:26;95545.84;;;16.58;30.87
10462;BME280;5278;42.656;23.374;2023-02-16T13:45:09;95544.41;;;16.13;31.39